Time;durP1;ratioP1;P1;durP2;ratioP2;P2;SDS_P1;SDS_P2;PMS_P1;PMS_P2;Temp;Humidity;BMP_temperature;BMP_pressure;BME280_temperature;BME280_humidity;BME280_pressure;Samples;Min_cycle;Max_cycle;Signal;HPM_P1;HPM_P2
2021/10/11 00:00:01;;;;;;;12.63;10.35;;;;;;;;;;5033412;28;20709;-59
2021/10/11 00:02:29;;;;;;;16.67;11.98;;;;;;;;;;5033413;28;20198;-59
2021/10/11 00:04:57;;;;;;;13.55;12.07;;;;;;;;;;5033708;28;20210;-58
2021/10/11 00:07:24;;;;;;;13.85;11.15;;;;;;;;;;5033683;28;20256;-59
2021/10/11 00:09:51;;;;;;;16.70;12.30;;;;;;;;;;5033526;28;20288;-59
2021/10/11 00:12:21;;;;;;;16.75;11.63;;;;;;;;;;5033311;28;20262;-59
2021/10/11 00:14:50;;;;;;;15.43;11.88;;;;;;;;;;5033891;28;20616;-59
2021/10/11 00:17:17;;;;;;;14.18;11.65;;;;;;;;;;5033692;28;20249;-59
2021/10/11 00:19:46;;;;;;;16.13;12.57;;;;;;;;;;5033152;28;20230;-58
2021/10/11 00:22:13;;;;;;;14.73;11.48;;;;;;;;;;5034183;28;20213;-59
2021/10/11 00:24:40;;;;;;;15.90;13.00;;;;;;;;;;5036224;28;20727;-59
2021/10/11 00:27:07;;;;;;;17.63;13.20;;;;;;;;;;5038144;28;20324;-59
2021/10/11 00:29:35;;;;;;;16.67;12.57;;;;;;;;;;5038121;28;20226;-58
2021/10/11 00:32:04;;;;;;;15.38;12.23;;;;;;;;;;5038070;28;20268;-58
2021/10/11 00:34:31;;;;;;;13.40;11.90;;;;;;;;;;5037567;28;20662;-59
2021/10/11 00:36:58;;;;;;;18.33;13.13;;;;;;;;;;5038012;28;20260;-59
2021/10/11 00:39:25;;;;;;;17.70;13.05;;;;;;;;;;5038658;28;20240;-59
2021/10/11 00:41:53;;;;;;;15.88;12.85;;;;;;;;;;5041566;28;20206;-59
2021/10/11 00:44:20;;;;;;;16.88;12.38;;;;;;;;;;5044240;28;20195;-59
2021/10/11 00:46:47;;;;;;;17.23;13.85;;;;;;;;;;5040182;28;20202;-59
2021/10/11 00:49:16;;;;;;;17.17;12.35;;;;;;;;;;5045897;28;20253;-59
2021/10/11 00:51:44;;;;;;;20.70;13.70;;;;;;;;;;5040875;28;20206;-59
2021/10/11 00:54:11;;;;;;;16.52;12.93;;;;;;;;;;5040152;28;20214;-59
2021/10/11 00:56:38;;;;;;;13.75;12.23;;;;;;;;;;5037208;28;20674;-59
2021/10/11 00:59:06;;;;;;;17.05;12.25;;;;;;;;;;5037812;28;20284;-59
2021/10/11 01:01:33;;;;;;;17.15;13.07;;;;;;;;;;5037651;28;20202;-59
2021/10/11 01:04:04;;;;;;;15.90;13.00;;;;;;;;;;5038759;28;20194;-59
2021/10/11 01:06:33;;;;;;;15.63;12.80;;;;;;;;;;5040059;28;20242;-59
2021/10/11 01:09:00;;;;;;;16.13;13.75;;;;;;;;;;5039266;28;20227;-59
2021/10/11 01:11:28;;;;;;;17.85;13.02;;;;;;;;;;5038128;28;20202;-59
2021/10/11 01:13:55;;;;;;;17.52;13.75;;;;;;;;;;5037608;28;20222;-60
2021/10/11 01:16:22;;;;;;;17.25;13.57;;;;;;;;;;5037252;28;20620;-59
2021/10/11 01:18:49;;;;;;;17.35;13.05;;;;;;;;;;5037207;28;20233;-58
2021/10/11 01:21:18;;;;;;;20.13;15.30;;;;;;;;;;5036770;28;20629;-59
2021/10/11 01:23:45;;;;;;;19.20;14.40;;;;;;;;;;5036726;28;20202;-59
2021/10/11 01:26:13;;;;;;;17.70;14.20;;;;;;;;;;5036670;28;20744;-59
2021/10/11 01:28:40;;;;;;;17.75;14.73;;;;;;;;;;5036758;28;20207;-58
2021/10/11 01:31:07;;;;;;;21.30;15.32;;;10.50;79.90;;;;;;5036647;28;20209;-59
2021/10/11 01:33:34;;;;;;;22.88;14.68;;;;;;;;;;5036254;28;20250;-59
2021/10/11 01:36:02;;;;;;;21.10;15.95;;;;;;;;;;5035461;28;20210;-59
2021/10/11 01:38:30;;;;;;;18.92;14.60;;;;;;;;;;5036281;28;20202;-58
2021/10/11 01:40:57;;;;;;;16.73;12.27;;;;;;;;;;5036102;28;20214;-60
2021/10/11 01:43:25;;;;;;;15.70;13.18;;;;;;;;;;5036808;28;20205;-59
2021/10/11 01:45:52;;;;;;;21.77;13.50;;;;;;;;;;5036108;28;20206;-59
2021/10/11 01:48:20;;;;;;;16.90;14.07;;;;;;;;;;5035966;28;20206;-59
2021/10/11 01:50:47;;;;;;;21.92;13.50;;;;;;;;;;5036028;28;20226;-59
2021/10/11 01:53:14;;;;;;;17.70;13.50;;;;;;;;;;5035969;28;20261;-60
2021/10/11 01:55:43;;;;;;;19.65;14.55;;;;;;;;;;5035829;28;20736;-60
2021/10/11 01:58:10;;;;;;;20.52;14.50;;;;;;;;;;5036060;28;20260;-60
2021/10/11 02:00:37;;;;;;;15.32;13.15;;;;;;;;;;5035538;28;20729;-59
2021/10/11 02:03:07;;;;;;;18.35;14.23;;;;;;;;;;5035963;28;20252;-60
2021/10/11 02:05:34;;;;;;;15.23;12.50;;;;;;;;;;5035746;28;20199;-59
2021/10/11 02:08:01;;;;;;;17.73;14.82;;;;;;;;;;5035495;28;20249;-59
2021/10/11 02:10:29;;;;;;;17.98;14.02;;;;;;;;;;5035552;28;20632;-58
2021/10/11 02:12:58;;;;;;;19.02;13.95;;;;;;;;;;5035520;28;20289;-59
2021/10/11 02:15:25;;;;;;;17.33;14.43;;;;;;;;;;5035653;28;20218;-59
2021/10/11 02:17:52;;;;;;;18.00;14.35;;;;;;;;;;5035310;28;20690;-59
2021/10/11 02:20:20;;;;;;;18.75;14.85;;;;;;;;;;5043813;28;20226;-58
2021/10/11 02:22:47;;;;;;;16.48;13.75;;;;;;;;;;5037784;28;20272;-59
2021/10/11 02:25:14;;;;;;;20.80;15.40;;;;;;;;;;5036202;28;20662;-59
2021/10/11 02:27:42;;;;;;;19.98;15.50;;;;;;;;;;5035663;28;20252;-59
2021/10/11 02:30:12;;;;;;;18.25;15.30;;;;;;;;;;5035608;28;20222;-60
2021/10/11 02:32:41;;;;;;;21.05;16.35;;;;;;;;;;5035109;28;20206;-59
2021/10/11 02:35:09;;;;;;;23.42;16.15;;;;;;;;;;5035109;28;20218;-59
2021/10/11 02:37:36;;;;;;;23.52;16.80;;;;;;;;;;5035170;28;20198;-59
2021/10/11 02:40:03;;;;;;;18.25;15.65;;;;;;;;;;5034714;28;20234;-58
2021/10/11 02:42:31;;;;;;;21.77;16.90;;;7.30;99.90;;;;;;5035354;28;20206;-59
2021/10/11 02:44:58;;;;;;;18.38;15.10;;;7.90;99.90;;;;;;5035052;28;20202;-58
2021/10/11 02:47:26;;;;;;;22.83;16.45;;;7.90;99.90;;;;;;5034116;28;20211;-58
2021/10/11 02:49:53;;;;;;;24.15;16.52;;;8.00;99.90;;;;;;5034609;28;20714;-59
2021/10/11 02:52:20;;;;;;;21.92;16.45;;;8.00;99.90;;;;;;5034707;28;20674;-59
2021/10/11 02:54:47;;;;;;;21.85;15.35;;;8.10;99.90;;;;;;5034756;28;20706;-60
2021/10/11 02:57:14;;;;;;;21.10;16.15;;;8.10;99.90;;;;;;5035121;28;20256;-59
2021/10/11 02:59:41;;;;;;;19.98;17.15;;;8.20;99.90;;;;;;5034945;28;20226;-59
2021/10/11 03:02:08;;;;;;;27.30;17.85;;;8.20;99.90;;;;;;5034976;28;20206;-58
2021/10/11 03:04:36;;;;;;;22.95;18.00;;;8.20;99.90;;;;;;5035083;28;20199;-60
2021/10/11 03:07:04;;;;;;;23.88;18.52;;;8.20;99.90;;;;;;5034621;28;20233;-58
2021/10/11 03:09:30;;;;;;;24.05;16.23;;;8.30;99.90;;;;;;5034805;28;20230;-60
2021/10/11 03:11:57;;;;;;;22.98;18.25;;;8.30;99.90;;;;;;5035058;28;20626;-59
2021/10/11 03:14:24;;;;;;;23.00;17.52;;;8.40;99.90;;;;;;5040496;28;20222;-60
2021/10/11 03:16:51;;;;;;;26.25;19.60;;;8.40;99.90;;;;;;5041092;28;20206;-59
2021/10/11 03:19:18;;;;;;;29.48;20.95;;;8.50;99.90;;;;;;5037120;28;20272;-59
2021/10/11 03:21:47;;;;;;;26.88;22.40;;;8.50;99.90;;;;;;5034668;28;20198;-59
2021/10/11 03:24:14;;;;;;;29.77;23.42;;;8.60;99.90;;;;;;5034374;28;20266;-60
2021/10/11 03:26:41;;;;;;;35.65;25.67;;;8.60;99.90;;;;;;5034358;28;20276;-58
2021/10/11 03:29:08;;;;;;;45.28;32.47;;;8.70;99.90;;;;;;5034373;28;20591;-60
2021/10/11 03:31:35;;;;;;;54.83;35.38;;;8.80;99.90;;;;;;5034397;28;20210;-58
2021/10/11 03:34:02;;;;;;;60.22;36.30;;;8.80;99.90;;;;;;5034231;28;20218;-59
2021/10/11 03:36:29;;;;;;;60.80;39.83;;;8.90;99.90;;;;;;5034173;28;20229;-59
2021/10/11 03:38:57;;;;;;;67.90;42.05;;;8.90;99.90;;;;;;5034067;28;20238;-59
2021/10/11 03:41:24;;;;;;;71.05;45.17;;;9.00;99.90;;;;;;5035013;28;20273;-60
2021/10/11 03:43:51;;;;;;;72.43;45.20;;;9.10;99.90;;;;;;5034437;28;20206;-60
2021/10/11 03:46:18;;;;;;;85.40;47.05;;;9.20;99.90;;;;;;5034367;28;20268;-60
2021/10/11 03:48:45;;;;;;;80.38;44.97;;;9.20;99.90;;;;;;5034367;28;20271;-59
2021/10/11 03:51:12;;;;;;;72.38;44.42;;;9.30;99.90;;;;;;5034254;28;20613;-59
2021/10/11 03:53:39;;;;;;;77.63;45.35;;;9.30;99.90;;;;;;5034224;28;20617;-58
2021/10/11 03:56:07;;;;;;;74.88;42.70;;;9.40;99.90;;;;;;5033946;28;20202;-59
2021/10/11 03:58:34;;;;;;;79.43;45.45;;;9.40;99.90;;;;;;5033593;28;20274;-59
2021/10/11 04:01:01;;;;;;;74.82;42.58;;;9.50;99.90;;;;;;5034065;28;20203;-59
2021/10/11 04:03:28;;;;;;;77.95;42.20;;;9.50;99.90;;;;;;5034276;28;20210;-60
2021/10/11 04:08:44;;;;;;;67.97;39.97;;;9.60;99.90;;;;;;5092261;28;20579;-59
2021/10/11 04:11:21;;;;;;;65.35;40.13;;;9.60;99.90;;;;;;5092482;28;20196;-59
2021/10/11 04:13:48;;;;;;;72.13;40.30;;;9.70;99.90;;;;;;5093239;28;20199;-59
2021/10/11 04:16:16;;;;;;;72.88;40.28;;;9.70;99.90;;;;;;5091739;28;20539;-59
2021/10/11 04:18:43;;;;;;;71.10;41.22;;;9.70;99.90;;;;;;5091437;28;20676;-59
2021/10/11 04:21:10;;;;;;;67.80;41.63;;;9.80;99.90;;;;;;5091881;28;20196;-59
2021/10/11 04:23:37;;;;;;;72.95;41.08;;;9.80;99.90;;;;;;5093796;28;20224;-59
2021/10/11 04:26:05;;;;;;;73.72;41.42;;;9.80;99.90;;;;;;5096520;28;20216;-59
2021/10/11 04:28:33;;;;;;;70.63;40.90;;;9.80;99.90;;;;;;5096878;28;20389;-58
2021/10/11 04:31:00;;;;;;;69.20;41.80;;;9.80;99.90;;;;;;5099017;28;20260;-59
2021/10/11 04:33:27;;;;;;;72.38;42.67;;;9.80;99.90;;;;;;5095308;28;20207;-59
2021/10/11 04:35:54;;;;;;;70.22;40.22;;;9.90;99.90;;;;;;5092285;28;20196;-60
2021/10/11 04:38:21;;;;;;;70.95;40.15;;;9.80;99.90;;;;;;5092232;28;20250;-58
2021/10/11 04:40:48;;;;;;;78.30;45.25;;;9.90;99.90;;;;;;5093003;28;20216;-60
2021/10/11 04:43:16;;;;;;;72.85;41.30;;;9.90;99.90;;;;;;5091382;28;20261;-59
2021/10/11 04:45:43;;;;;;;72.70;42.15;;;9.90;99.90;;;;;;5091912;28;20527;-59
2021/10/11 04:48:11;;;;;;;66.43;40.30;;;9.90;99.90;;;;;;5090855;28;20220;-59
2021/10/11 04:50:38;;;;;;;69.70;40.70;;;9.90;99.90;;;;;;5090583;28;20311;-59
2021/10/11 04:53:06;;;;;;;74.28;42.70;;;10.00;99.90;;;;;;5090804;28;20277;-59
2021/10/11 04:55:34;;;;;;;86.15;45.63;;;10.00;99.90;;;;;;5090466;28;20680;-59
2021/10/11 04:58:01;;;;;;;71.53;40.88;;;10.00;99.90;;;;;;5090696;28;20608;-59
2021/10/11 05:00:30;;;;;;;70.22;41.33;;;10.00;99.90;;;;;;5090809;28;20316;-58
2021/10/11 05:02:58;;;;;;;73.30;41.20;;;10.10;99.90;;;;;;5090625;28;20672;-59
2021/10/11 05:05:25;;;;;;;72.72;41.97;;;10.10;99.90;;;;;;5090795;28;20204;-60
2021/10/11 05:07:52;;;;;;;71.50;40.78;;;10.10;99.90;;;;;;5090921;28;20216;-60
2021/10/11 05:10:19;;;;;;;66.70;40.85;;;10.10;99.90;;;;;;5090794;28;20224;-59
2021/10/11 05:12:46;;;;;;;70.55;41.08;;;10.10;99.90;;;;;;5099130;28;20227;-58
2021/10/11 05:15:13;;;;;;;68.88;40.03;;;10.10;99.90;;;;;;5107239;28;20216;-59
2021/10/11 05:17:41;;;;;;;71.55;41.10;;;10.20;99.90;;;;;;5108281;28;20196;-58
2021/10/11 05:20:09;;;;;;;79.45;40.17;;;10.20;99.90;;;;;;5094235;28;20274;-58
2021/10/11 05:22:36;;;;;;;79.17;40.57;;;10.20;99.90;;;;;;5093376;28;20205;-59
2021/10/11 05:25:05;;;;;;;76.20;40.83;;;10.20;99.90;;;;;;5092856;28;20466;-57
2021/10/11 05:27:32;;;;;;;73.15;38.53;;;10.30;99.90;;;;;;5090215;28;20221;-59
2021/10/11 05:30:00;;;;;;;66.57;40.17;;;10.30;99.90;;;;;;5090825;28;20641;-58
2021/10/11 05:32:28;;;;;;;71.38;41.00;;;10.30;99.90;;;;;;5089814;28;20204;-59
2021/10/11 05:34:58;;;;;;;73.22;40.08;;;10.30;99.90;;;;;;5082635;28;20733;-59
2021/10/11 05:37:25;;;;;;;76.73;38.83;;;10.30;99.90;;;;;;5083542;28;20197;-59
2021/10/11 05:39:52;;;;;;;73.25;39.38;;;10.30;99.90;;;;;;5087515;28;20509;-60
2021/10/11 05:42:19;;;;;;;65.40;37.22;;;10.40;99.90;;;;;;5093245;28;20205;-59
2021/10/11 05:44:46;;;;;;;67.97;38.60;;;10.30;99.90;;;;;;5082466;28;20660;-58
2021/10/11 05:47:13;;;;;;;65.85;39.28;;;10.40;99.90;;;;;;5080916;28;20479;-57
2021/10/11 05:49:40;;;;;;;75.30;40.88;;;10.40;99.90;;;;;;5081296;28;20778;-57
2021/10/11 05:52:09;;;;;;;71.35;39.70;;;10.40;99.90;;;;;;5082198;28;20254;-60
2021/10/11 05:54:36;;;;;;;65.70;38.05;;;10.40;99.90;;;;;;5080407;28;20251;-59
2021/10/11 05:57:03;;;;;;;67.28;37.55;;;10.50;99.90;;;;;;5080432;28;20209;-59
2021/10/11 05:59:30;;;;;;;69.87;37.57;;;10.50;99.90;;;;;;5080492;28;20235;-57
2021/10/11 06:01:57;;;;;;;67.87;38.60;;;10.50;99.90;;;;;;5080200;28;20473;-58
2021/10/11 06:04:24;;;;;;;68.97;38.00;;;10.50;99.90;;;;;;5079701;28;20447;-59
2021/10/11 06:06:51;;;;;;;66.13;37.40;;;10.50;99.90;;;;;;5078427;28;20505;-59
2021/10/11 06:09:19;;;;;;;62.70;38.72;;;10.50;99.90;;;;;;5079904;28;20468;-59
2021/10/11 06:11:47;;;;;;;68.65;39.17;;;10.60;99.90;;;;;;5079550;28;20197;-58
2021/10/11 06:14:14;;;;;;;68.43;38.33;;;10.60;99.90;;;;;;5078166;28;20254;-59
2021/10/11 06:16:41;;;;;;;66.75;37.97;;;10.60;99.90;;;;;;5077606;28;20205;-60
2021/10/11 06:19:08;;;;;;;67.13;37.67;;;10.60;99.90;;;;;;5081693;28;20217;-59
2021/10/11 06:21:35;;;;;;;60.47;36.72;;;10.60;99.90;;;;;;5084381;28;20205;-60
2021/10/11 06:24:03;;;;;;;68.78;38.35;;;10.60;99.90;;;;;;5078317;28;20680;-60
2021/10/11 06:26:31;;;;;;;64.72;36.80;;;10.60;99.90;;;;;;5076529;28;20212;-60
2021/10/11 06:28:58;;;;;;;59.55;36.70;;;10.70;99.90;;;;;;5077366;28;20228;-59
2021/10/11 06:31:25;;;;;;;65.65;35.88;;;10.70;99.90;;;;;;5076003;28;20205;-59
2021/10/11 06:33:52;;;;;;;63.38;36.35;;;10.70;99.90;;;;;;5077467;28;20294;-59
2021/10/11 06:36:19;;;;;;;63.73;37.63;;;10.80;99.90;;;;;;5076308;28;20205;-59
2021/10/11 06:38:46;;;;;;;61.25;36.65;;;10.80;99.90;;;;;;5075400;28;20443;-59
2021/10/11 06:41:13;;;;;;;60.43;37.17;;;10.80;99.90;;;;;;5076377;28;20201;-59
2021/10/11 06:43:41;;;;;;;57.83;35.50;;;10.80;99.90;;;;;;5075686;28;20496;-60
2021/10/11 06:46:08;;;;;;;57.33;35.27;;;10.90;99.90;;;;;;5075023;28;20439;-59
2021/10/11 06:48:35;;;;;;;58.90;33.50;;;10.90;99.90;;;;;;5075022;28;20479;-60
2021/10/11 06:51:02;;;;;;;56.87;36.93;;;10.90;99.90;;;;;;5075695;28;20455;-59
2021/10/11 06:53:29;;;;;;;58.58;36.42;;;10.90;99.90;;;;;;5075536;28;20503;-60
2021/10/11 06:55:56;;;;;;;54.07;34.57;;;11.00;99.90;;;;;;5074912;28;20262;-59
2021/10/11 06:58:23;;;;;;;55.33;34.40;;;11.00;99.90;;;;;;5075039;28;20450;-59
2021/10/11 07:00:52;;;;;;;57.70;36.93;;;11.00;99.90;;;;;;5074759;28;20517;-58
2021/10/11 07:03:23;;;;;;;54.97;33.60;;;11.10;99.90;;;;;;5075843;28;20864;-60
2021/10/11 07:05:50;;;;;;;57.13;33.40;;;11.10;99.90;;;;;;5074697;28;20439;-59
2021/10/11 07:08:17;;;;;;;48.07;32.50;;;11.10;99.90;;;;;;5074924;28;20541;-59
2021/10/11 07:10:44;;;;;;;52.77;31.53;;;11.20;99.90;;;;;;5074720;28;20467;-57
2021/10/11 07:13:11;;;;;;;49.07;32.37;;;11.20;99.90;;;;;;5074778;28;20517;-59
2021/10/11 07:15:38;;;;;;;51.93;32.33;;;11.20;99.90;;;;;;5075365;28;20451;-60
2021/10/11 07:18:07;;;;;;;46.97;31.50;;;11.30;99.90;;;;;;5075259;28;20454;-59
2021/10/11 07:20:34;;;;;;;52.37;31.73;;;11.30;99.90;;;;;;5075380;28;20815;-59
2021/10/11 07:23:01;;;;;;;50.93;31.83;;;11.30;99.90;;;;;;5075049;28;20451;-59
2021/10/11 07:25:28;;;;;;;48.30;32.90;;;11.30;99.90;;;;;;5075400;28;20817;-59
2021/10/11 07:27:55;;;;;;;44.50;29.37;;;11.30;99.90;;;;;;5074538;28;20550;-58
2021/10/11 07:30:22;;;;;;;43.83;30.17;;;11.30;99.90;;;;;;5074301;28;21056;-59
2021/10/11 07:32:48;;;;;;;43.37;29.90;;;11.40;99.90;;;;;;5074782;28;20793;-59
2021/10/11 07:35:17;;;;;;;47.83;30.50;;;11.40;99.90;;;;;;5074393;28;20516;-59
2021/10/11 07:37:44;;;;;;;51.50;28.60;;;11.40;99.90;;;;;;5074592;28;20956;-60
2021/10/11 07:40:12;;;;;;;45.20;28.40;;;11.50;99.90;;;;;;5075103;28;20471;-58
2021/10/11 07:42:39;;;;;;;43.57;28.00;;;11.60;99.90;;;;;;5074870;28;20448;-60
2021/10/11 07:45:07;;;;;;;41.23;26.13;;;11.60;99.90;;;;;;5075109;28;20505;-60
2021/10/11 07:47:34;;;;;;;44.23;27.73;;;11.70;99.90;;;;;;5075110;28;20496;-60
2021/10/11 07:50:01;;;;;;;42.03;26.40;;;11.80;99.90;;;;;;5074908;28;20472;-59
2021/10/11 07:52:29;;;;;;;47.00;27.43;;;11.80;99.90;;;;;;5074347;28;20451;-59
2021/10/11 07:54:56;;;;;;;42.80;26.93;;;11.80;99.90;;;;;;5074114;28;20443;-60
2021/10/11 07:57:23;;;;;;;34.33;24.57;;;11.90;99.90;;;;;;5076721;28;20447;-59
2021/10/11 07:59:50;;;;;;;35.53;24.70;;;11.90;99.90;;;;;;5077741;28;20830;-60
2021/10/11 08:02:18;;;;;;;36.73;25.20;;;11.90;99.90;;;;;;5075709;28;20494;-60
2021/10/11 08:04:45;;;;;;;33.10;23.97;;;12.00;99.90;;;;;;5077284;28;20435;-60
2021/10/11 08:07:12;;;;;;;32.73;22.60;;;12.00;99.90;;;;;;5077421;28;20450;-59
2021/10/11 08:09:40;;;;;;;30.93;20.90;;;12.00;99.90;;;;;;5075406;28;20628;-56
2021/10/11 08:12:08;;;;;;;32.93;23.07;;;12.00;99.90;;;;;;5076428;28;20443;-59
2021/10/11 08:14:35;;;;;;;36.17;23.30;;;11.90;99.90;;;;;;5075784;28;20543;-58
2021/10/11 08:17:02;;;;;;;30.90;21.40;;;11.90;99.90;;;;;;5082223;28;20935;-59
2021/10/11 08:19:30;;;;;;;33.53;22.97;;;12.00;99.90;;;;;;5082610;28;20467;-57
2021/10/11 08:21:57;;;;;;;41.07;21.50;;;12.00;99.90;;;;;;5077128;28;20451;-58
2021/10/11 08:24:24;;;;;;;36.73;21.87;;;12.00;99.90;;;;;;5077804;28;20802;-64
2021/10/11 08:26:52;;;;;;;31.83;19.47;;;12.00;99.90;;;;;;5077448;28;20439;-60
2021/10/11 08:29:19;;;;;;;30.13;18.87;;;12.00;99.90;;;;;;5074428;28;20895;-59
2021/10/11 08:31:46;;;;;;;33.03;21.13;;;12.00;99.90;;;;;;5074219;28;21011;-59
2021/10/11 08:34:13;;;;;;;27.37;19.60;;;11.90;99.90;;;;;;5073922;28;20439;-59
2021/10/11 08:36:41;;;;;;;30.47;20.00;;;11.90;99.90;;;;;;5074033;28;21001;-60
2021/10/11 08:39:08;;;;;;;26.77;19.07;;;11.90;99.90;;;;;;5073978;28;20608;-59
2021/10/11 08:41:35;;;;;;;28.87;19.00;;;11.90;99.90;;;;;;5076770;28;20447;-59
2021/10/11 08:44:03;;;;;;;28.07;19.00;;;11.90;99.90;;;;;;5080327;28;20439;-59
2021/10/11 08:46:31;;;;;;;27.80;17.37;;;11.90;99.90;;;;;;5078018;28;20443;-59
2021/10/11 08:48:59;;;;;;;25.50;17.70;;;11.90;99.90;;;;;;5072998;28;20505;-59
2021/10/11 08:51:26;;;;;;;29.93;17.03;;;11.90;99.90;;;;;;5073694;28;20467;-59
2021/10/11 08:53:53;;;;;;;30.07;18.83;;;11.90;99.90;;;;;;5074896;28;20447;-60
2021/10/11 08:56:20;;;;;;;23.63;16.37;;;11.90;99.90;;;;;;5076929;28;20935;-59
2021/10/11 08:58:49;;;;;;;26.10;16.37;;;11.90;99.90;;;;;;5077268;28;20880;-60
2021/10/11 09:01:21;;;;;;;24.70;16.20;;;11.80;99.90;;;;;;5076985;28;20803;-59
2021/10/11 09:03:48;;;;;;;25.17;15.37;;;11.80;99.90;;;;;;5076766;28;20494;-59
2021/10/11 09:06:15;;;;;;;26.37;15.77;;;11.90;99.90;;;;;;5076955;28;20450;-60
2021/10/11 09:08:42;;;;;;;23.10;15.10;;;11.90;99.90;;;;;;5076486;28;20482;-59
2021/10/11 09:11:11;;;;;;;26.23;14.93;;;11.90;99.90;;;;;;5076672;28;20836;-59
2021/10/11 09:13:41;;;;;;;21.60;13.53;;;12.00;99.90;;;;;;5076295;28;20919;-59
2021/10/11 09:16:11;;;;;;;18.67;13.20;;;12.00;99.90;;;;;;5076799;28;20455;-58
2021/10/11 09:18:41;;;;;;;23.57;12.17;;;12.10;99.90;;;;;;5076741;28;20444;-58
2021/10/11 09:21:09;;;;;;;19.97;11.70;;;12.20;99.90;;;;;;5076394;28;20847;-59
2021/10/11 09:23:37;;;;;;;21.83;12.43;;;12.30;99.90;;;;;;5076299;28;20443;-59
2021/10/11 09:26:16;;;;;;;16.30;10.40;;;12.50;99.90;;;;;;5077524;28;20500;-59
2021/10/11 09:28:54;;;;;;;16.30;10.27;;;12.80;99.90;;;;;;5076376;28;20471;-60
2021/10/11 09:31:35;;;;;;;13.80;8.97;;;13.00;99.90;;;;;;5075865;28;20433;-58
2021/10/11 09:34:03;;;;;;;14.20;7.80;;;13.20;99.90;;;;;;5075997;28;20842;-60
2021/10/11 09:36:30;;;;;;;16.90;9.00;;;13.50;99.90;;;;;;5077918;28;20502;-58
2021/10/11 09:39:01;;;;;;;13.50;8.40;;;13.80;99.90;;;;;;5076027;28;20458;-59
2021/10/11 09:41:28;;;;;;;14.60;6.93;;;14.10;99.90;;;;;;5076404;28;20452;-58
2021/10/11 09:43:56;;;;;;;14.27;8.03;;;14.30;99.90;;;;;;5077259;28;20512;-59
2021/10/11 09:46:24;;;;;;;20.60;7.53;;;14.40;99.90;;;;;;5076712;28;20454;-60
2021/10/11 09:48:53;;;;;;;15.87;6.53;;;14.50;99.90;;;;;;5075766;28;20929;-58
2021/10/11 09:51:24;;;;;;;15.40;6.20;;;14.50;99.90;;;;;;5084999;28;20493;-59
2021/10/11 09:53:53;;;;;;;14.13;6.83;;;14.60;99.90;;;;;;5081682;28;20476;-59
2021/10/11 09:56:20;;;;;;;9.53;5.73;;;14.60;99.90;;;;;;5083208;28;20869;-59
2021/10/11 09:58:48;;;;;;;14.97;5.63;;;14.50;99.90;;;;;;5081212;28;20455;-59
2021/10/11 10:01:17;;;;;;;10.40;5.10;;;14.60;99.90;;;;;;5081191;28;20450;-60
2021/10/11 10:03:44;;;;;;;14.20;5.73;;;14.60;99.90;;;;;;5081953;28;20938;-59
2021/10/11 10:06:12;;;;;;;11.77;4.23;;;14.70;99.90;;;;;;5076054;28;20508;-60
2021/10/11 10:08:43;;;;;;;9.03;4.40;;;14.80;99.20;;;;;;5076316;28;20808;-59
2021/10/11 10:11:11;;;;;;;9.43;4.30;;;14.80;98.40;;;;;;5076270;28;21006;-59
2021/10/11 10:13:47;;;;;;;9.53;4.50;;;14.70;97.70;;;;;;5076619;28;20458;-60
2021/10/11 10:16:16;;;;;;;8.37;3.70;;;14.60;97.60;;;;;;5075402;28;20449;-58
2021/10/11 10:18:44;;;;;;;9.57;4.17;;;14.50;97.60;;;;;;5075519;28;20838;-58
2021/10/11 10:21:12;;;;;;;8.80;4.80;;;14.40;97.40;;;;;;5076450;28;20453;-60
2021/10/11 10:23:43;;;;;;;11.53;4.10;;;14.40;97.10;;;;;;5075546;28;20569;-60
2021/10/11 10:26:12;;;;;;;9.23;4.73;;;14.40;97.10;;;;;;5075697;28;20434;-59
2021/10/11 10:28:44;;;;;;;10.77;4.37;;;14.40;96.90;;;;;;5076538;28;20482;-60
2021/10/11 10:31:11;;;;;;;8.90;3.40;;;14.40;96.60;;;;;;5077329;28;20805;-57
2021/10/11 10:33:40;;;;;;;9.33;3.80;;;14.40;96.50;;;;;;5076751;28;20457;-59
2021/10/11 10:36:20;;;;;;;11.03;4.13;;;14.40;96.00;;;;;;5075890;28;20444;-59
2021/10/11 10:38:59;;;;;;;7.87;3.10;;;14.40;95.90;;;;;;5075272;28;20469;-57
2021/10/11 10:41:26;;;;;;;7.27;3.20;;;14.50;95.80;;;;;;5076686;28;20431;-57
2021/10/11 10:43:54;;;;;;;8.63;3.27;;;14.50;95.50;;;;;;5075706;28;20911;-59
2021/10/11 10:46:21;;;;;;;13.67;3.30;;;14.50;95.50;;;;;;5074880;28;20856;-60
2021/10/11 10:48:50;;;;;;;7.17;3.77;;;14.50;95.50;;;;;;5075564;28;20813;-58
2021/10/11 10:51:17;;;;;;;7.70;3.23;;;14.50;95.40;;;;;;5074768;28;20454;-59
2021/10/11 10:53:51;;;;;;;7.70;3.97;;;14.60;95.40;;;;;;5074738;28;20454;-60
2021/10/11 10:56:20;;;;;;;13.70;3.90;;;14.60;95.20;;;;;;5074968;28;20842;-59
2021/10/11 10:58:49;;;;;;;8.27;3.13;;;14.70;95.40;;;;;;5077826;28;20875;-59
2021/10/11 11:01:24;;;;;;;9.20;3.30;;;14.80;95.30;;;;;;5074495;28;20527;-58
2021/10/11 11:03:51;;;;;;;6.77;3.80;;;14.90;95.00;;;;;;5075526;28;20750;-59
2021/10/11 11:06:28;;;;;;;6.93;3.00;;;14.90;94.60;;;;;;5073976;28;20478;-59
2021/10/11 11:08:59;;;;;;;7.27;2.93;;;15.20;94.20;;;;;;5074933;28;20553;-60
2021/10/11 11:11:29;;;;;;;6.40;2.40;;;15.10;92.80;;;;;;5075289;28;20428;-58
2021/10/11 11:13:58;;;;;;;9.33;3.13;;;15.10;92.30;;;;;;5075002;28;20446;-57
2021/10/11 11:16:26;;;;;;;6.43;2.77;;;15.10;92.20;;;;;;5074405;28;20452;-59
2021/10/11 11:18:54;;;;;;;16.13;3.60;;;15.20;92.00;;;;;;5074736;28;20554;-59
2021/10/11 11:21:21;;;;;;;7.93;2.40;;;15.30;91.40;;;;;;5075053;28;20531;-57
2021/10/11 11:23:49;;;;;;;5.80;2.70;;;15.20;91.20;;;;;;5075350;28;20444;-58
2021/10/11 11:26:17;;;;;;;10.97;2.80;;;15.20;91.40;;;;;;5075058;28;20473;-59
2021/10/11 11:28:47;;;;;;;7.43;2.60;;;15.30;91.40;;;;;;5074791;28;20447;-57
2021/10/11 11:31:16;;;;;;;6.87;2.20;;;15.60;91.20;;;;;;5075810;28;20531;-58
2021/10/11 11:33:47;;;;;;;5.73;1.70;;;15.90;90.60;;;;;;5074493;28;20569;-57
2021/10/11 11:36:14;;;;;;;3.90;1.90;;;16.30;88.60;;;;;;5073978;28;20836;-60
2021/10/11 11:38:41;;;;;;;6.47;1.90;;;16.50;84.00;;;;;;5074354;28;20449;-59
2021/10/11 11:41:09;;;;;;;12.03;2.13;;;16.50;82.30;;;;;;5074144;28;20455;-59
2021/10/11 11:43:38;;;;;;;8.37;2.80;;;16.50;79.80;;;;;;5073866;28;20447;-58
2021/10/11 11:46:08;;;;;;;9.87;2.17;;;16.40;78.30;;;;;;5074190;28;20443;-60
2021/10/11 11:48:37;;;;;;;9.80;2.07;;;16.30;78.40;;;;;;5074348;28;20451;-60
2021/10/11 11:51:06;;;;;;;7.20;1.93;;;16.20;78.20;;;;;;5073802;28;20444;-60
2021/10/11 11:53:35;;;;;;;7.20;2.07;;;16.10;78.20;;;;;;5073775;28;20489;-59
2021/10/11 11:56:04;;;;;;;4.30;1.57;;;16.00;78.70;;;;;;5074111;28;20517;-58
2021/10/11 11:58:32;;;;;;;7.23;1.70;;;15.90;79.00;;;;;;5073450;28;21008;-60
2021/10/11 12:01:03;;;;;;;6.53;1.90;;;15.80;79.50;;;;;;5074560;28;20469;-59
2021/10/11 12:03:33;;;;;;;6.23;2.10;;;15.70;79.90;;;;;;5074323;28;20440;-59
2021/10/11 12:06:01;;;;;;;13.80;2.13;;;15.60;80.00;;;;;;5074354;28;20879;-57
2021/10/11 12:08:29;;;;;;;8.63;2.13;;;15.40;80.10;;;;;;5075464;28;20897;-59
2021/10/11 12:11:00;;;;;;;8.73;2.23;;;15.20;81.50;;;;;;5076004;28;20544;-60
2021/10/11 12:13:33;;;;;;;7.13;1.77;;;14.80;84.90;;;;;;5076459;28;20486;-60
2021/10/11 12:16:02;;;;;;;7.57;2.47;;;14.50;88.40;;;;;;5074156;28;20454;-58
2021/10/11 12:18:41;;;;;;;7.53;1.93;;;14.30;90.80;;;;;;5074573;28;20473;-59
2021/10/11 12:21:19;;;;;;;3.50;1.60;;;14.10;91.70;;;;;;5074304;28;20452;-58
2021/10/11 12:23:47;;;;;;;9.17;2.33;;;14.10;92.30;;;;;;5074247;28;20442;-60
2021/10/11 12:26:14;;;;;;;4.33;1.93;;;13.90;93.40;;;;;;5075158;28;20479;-58
2021/10/11 12:28:49;;;;;;;5.57;2.10;;;13.50;94.80;;;;;;5075820;28;20502;-60
2021/10/11 12:31:21;;;;;;;5.00;2.33;;;13.00;96.70;;;;;;5079063;28;20428;-59
2021/10/11 12:33:51;;;;;;;7.30;2.00;;;12.70;98.50;;;;;;5079321;28;20433;-59
2021/10/11 12:36:20;;;;;;;4.00;2.27;;;12.50;99.60;;;;;;5079840;28;20788;-60
2021/10/11 12:38:47;;;;;;;8.63;3.00;;;12.50;99.90;;;;;;5078713;28;20473;-60
2021/10/11 12:41:15;;;;;;;8.40;3.33;;;12.50;99.90;;;;;;5080313;28;20439;-60
2021/10/11 12:43:53;;;;;;;8.23;2.27;;;12.40;99.90;;;;;;5080830;28;20492;-61
2021/10/11 12:46:20;;;;;;;5.10;2.00;;;12.40;99.90;;;;;;5080411;28;20428;-58
2021/10/11 12:48:53;;;;;;;3.87;1.73;;;12.40;99.90;;;;;;5081930;28;20451;-60
2021/10/11 12:51:28;;;;;;;4.07;1.83;;;12.40;99.90;;;;;;5081527;28;20474;-60
2021/10/11 12:54:03;;;;;;;6.83;1.97;;;12.50;99.90;;;;;;5078198;28;20813;-59
2021/10/11 12:56:30;;;;;;;9.23;2.30;;;12.50;99.90;;;;;;5078034;28;20443;-60
2021/10/11 12:58:58;;;;;;;5.30;2.27;;;12.60;99.90;;;;;;5078307;28;20493;-60